Time;durP1;ratioP1;P1;durP2;ratioP2;P2;SDS_P1;SDS_P2;PMS_P1;PMS_P2;Temp;Humidity;BMP_temperature;BMP_pressure;BME280_temperature;BME280_humidity;BME280_pressure;Samples;Min_cycle;Max_cycle;Signal;HPM_P1;HPM_P2
2023/12/08 00:00:24;;;;;;;217.60;72.20;;;;;;;0.46;84.69;101171.78;110817;1212;97629;-63
2023/12/08 00:02:50;;;;;;;219.90;73.30;;;;;;;0.46;84.74;101176.17;110666;1212;140501;-65
2023/12/08 00:05:15;;;;;;;225.00;76.90;;;;;;;0.46;84.73;101173.73;110755;1212;97670;-64
2023/12/08 00:07:40;;;;;;;221.00;73.70;;;;;;;0.46;84.68;101180.75;110883;1212;99077;-64
2023/12/08 00:10:07;;;;;;;216.00;75.00;;;;;;;0.46;84.87;101178.64;110579;1212;138503;-64
2023/12/08 00:12:32;;;;;;;228.30;77.10;;;;;;;0.48;84.83;101175.85;110852;1212;97832;-64
2023/12/08 00:14:57;;;;;;;215.80;73.90;;;;;;;0.48;84.89;101179.36;110668;1224;139220;-64
2023/12/08 00:17:23;;;;;;;224.70;75.30;;;;;;;0.48;84.83;101177.77;110802;1212;97942;-64
2023/12/08 00:19:48;;;;;;;218.90;74.10;;;;;;;0.48;84.83;101180.94;110876;1208;97630;-64
2023/12/08 00:22:13;;;;;;;225.70;71.90;;;;;;;0.49;84.81;101182.01;110657;1212;139108;-64
2023/12/08 00:24:38;;;;;;;215.50;73.60;;;;;;;0.50;84.82;101184.83;110828;1209;97736;-64
2023/12/08 00:27:04;;;;;;;225.20;75.10;;;;;;;0.52;84.89;101182.38;110698;1212;139054;-63
2023/12/08 00:29:30;;;;;;;229.10;76.20;;;;;;;0.51;84.88;101183.77;110781;1207;99456;-64
2023/12/08 00:31:55;;;;;;;225.90;77.20;;;;;;;0.51;84.87;101185.36;110871;1207;97459;-64
2023/12/08 00:34:21;;;;;;;228.00;76.50;;;;;;;0.51;84.88;101183.06;110680;1211;139922;-64
2023/12/08 00:36:46;;;;;;;226.60;76.70;;;;;;;0.52;84.91;101185.36;110804;1213;97693;-64
2023/12/08 00:39:11;;;;;;;235.20;79.20;;;;;;;0.53;84.94;101185.36;110743;1207;138853;-64
2023/12/08 00:41:37;;;;;;;230.60;79.50;;;;;;;0.52;84.83;101185.89;110819;1213;97681;-63
2023/12/08 00:44:03;;;;;;;245.70;81.20;;;;;;;0.51;84.92;101184.65;110845;1209;97664;-63
2023/12/08 00:46:29;;;;;;;244.40;80.50;;;;;;;0.50;84.94;101184.48;110865;1212;139090;-64
2023/12/08 00:48:55;;;;;;;254.30;83.30;;;;;;;0.50;84.88;101175.67;110789;1209;96463;-64
2023/12/08 00:51:20;;;;;;;236.30;79.30;;;;;;;0.48;84.85;101174.44;110756;1207;138504;-64
2023/12/08 00:53:45;;;;;;;224.50;78.60;;;;;;;0.47;84.87;101173.55;110813;1211;98888;-64
2023/12/08 00:56:10;;;;;;;253.60;79.10;;;;;;;0.47;84.94;101172.85;110865;1208;97651;-64
2023/12/08 00:58:37;;;;;;;243.40;81.90;;;;;;;0.48;85.01;101178.30;110670;1207;139326;-64
2023/12/08 01:01:02;;;;;;;260.40;84.80;;;;;;;0.49;84.95;101177.79;110792;1212;97667;-64
2023/12/08 01:03:28;;;;;;;240.80;83.20;;;;;;;0.48;84.98;101185.70;110699;1208;139272;-64
2023/12/08 01:05:53;;;;;;;246.20;83.00;;;;;;;0.48;84.94;101184.98;110816;1213;96380;-64
2023/12/08 01:08:19;;;;;;;252.20;82.70;;;;;;;0.48;84.95;101187.98;110716;1212;97675;-64
2023/12/08 01:10:44;;;;;;;253.80;85.20;;;;;;;0.47;84.96;101192.54;110767;1208;138448;-64
2023/12/08 01:13:10;;;;;;;261.40;82.90;;;;;;;0.47;85.08;101193.42;110793;1213;97682;-64
2023/12/08 01:15:35;;;;;;;245.40;80.70;;;;;;;0.47;85.06;101189.73;110818;1208;138463;-64
2023/12/08 01:18:00;;;;;;;233.10;79.40;;;;;;;0.46;85.08;101192.18;110835;1208;99417;-64
2023/12/08 01:20:25;;;;;;;254.90;82.30;;;;;;;0.47;85.08;101190.95;110572;1212;139065;-65
2023/12/08 01:22:51;;;;;;;256.50;83.10;;;;;;;0.48;85.01;101192.89;110941;1209;97589;-64
2023/12/08 01:25:17;;;;;;;247.50;82.40;;;;;;;0.48;85.02;101190.61;110835;1212;97674;-64
2023/12/08 01:27:42;;;;;;;253.50;80.80;;;;;;;0.49;85.13;101192.55;110788;1212;138982;-64
2023/12/08 01:30:08;;;;;;;243.90;80.40;;;;;;;0.50;85.10;101194.48;110771;1212;99254;-64
2023/12/08 01:32:33;;;;;;;259.60;85.00;;;;;;;0.49;85.02;101190.61;110871;1207;138812;-64
2023/12/08 01:34:58;;;;;;;239.00;82.40;;;;;;;0.49;85.18;101188.69;110841;1213;97629;-64
2023/12/08 01:37:24;;;;;;;249.50;79.60;;;;;;;0.49;85.09;101187.80;110843;1212;96459;-64
2023/12/08 01:39:49;;;;;;;249.20;80.70;;;;;;;0.49;85.04;101184.11;110806;1208;138847;-64
2023/12/08 01:42:14;;;;;;;262.40;81.40;;;;;;;0.50;85.26;101182.70;110829;1208;111770;-64
2023/12/08 01:44:39;;;;;;;255.40;80.80;;;;;;;0.50;85.17;101179.90;110728;1212;139187;-64
2023/12/08 01:47:06;;;;;;;245.30;83.80;;;;;;;0.50;85.27;101174.27;110830;1208;98184;-64
2023/12/08 01:49:33;;;;;;;252.10;82.10;;;;;;;0.50;85.16;101163.38;110776;1212;97639;-64
2023/12/08 01:51:59;;;;;;;259.50;82.70;;;;;;;0.52;85.31;101154.23;110708;1207;139817;-63
2023/12/08 01:54:25;;;;;;;265.80;88.50;;;;;;;0.52;85.17;101154.42;110828;1213;97642;-64
2023/12/08 01:56:50;;;;;;;261.10;85.80;;;;;;;0.52;85.18;101153.36;110776;1212;139602;-64
2023/12/08 01:59:16;;;;;;;255.60;87.30;;;;;;;0.52;85.21;101151.26;110874;1207;97585;-64
2023/12/08 02:01:42;;;;;;;254.80;83.50;;;;;;;0.51;85.15;101140.70;110878;1212;99480;-63
2023/12/08 02:04:07;;;;;;;262.30;88.40;;;;;;;0.50;85.16;101131.20;110735;1212;139426;-64
2023/12/08 02:06:33;;;;;;;256.90;84.20;;;;;;;0.49;85.15;101129.08;110862;1212;97638;-64
2023/12/08 02:08:59;;;;;;;271.00;89.70;;;;;;;0.48;85.15;101126.27;110712;1213;138782;-64
2023/12/08 02:11:25;;;;;;;261.80;87.60;;;;;;;0.46;85.19;101130.66;110887;1213;97677;-64
2023/12/08 02:13:50;;;;;;;265.60;84.90;;;;;;;0.47;85.27;101124.15;110936;1210;97902;-64
2023/12/08 02:16:26;;;;;;;272.00;86.50;;;;;;;0.47;85.19;101123.27;110673;1223;139022;-64
2023/12/08 02:18:51;;;;;;;250.20;83.70;;;;;;;0.47;85.22;101122.56;110966;1212;97663;-64
2023/12/08 02:21:17;;;;;;;284.00;88.90;;;;;;;0.47;85.25;101118.88;110725;1209;138835;-64
2023/12/08 02:23:49;;;;;;;268.30;88.60;;;;;;;0.48;85.26;101120.28;110890;1212;97808;-64
2023/12/08 02:26:16;;;;;;;259.70;87.80;;;;;;;0.48;85.29;101117.83;111042;1213;97701;-64
2023/12/08 02:28:43;;;;;;;265.20;88.20;;;;;;;0.48;85.23;101121.70;110755;1208;138626;-64
2023/12/08 02:31:12;;;;;;;272.00;90.70;;;;;;;0.49;85.34;101119.59;110827;1213;97802;-64
2023/12/08 02:33:40;;;;;;;274.10;90.70;;;;;;;0.50;85.31;101111.51;110748;1223;139049;-64
2023/12/08 02:36:07;;;;;;;272.90;90.90;;;;;;;0.50;85.31;101105.00;110847;1208;107924;-64
2023/12/08 02:38:33;;;;;;;261.60;89.70;;;;;;;0.49;85.39;101100.42;110779;1210;139790;-64
2023/12/08 02:40:59;;;;;;;272.70;92.40;;;;;;;0.49;85.28;101101.66;110909;1208;97601;-64
2023/12/08 02:43:24;;;;;;;270.50;90.10;;;;;;;0.48;85.34;101099.72;110923;1208;97697;-64
2023/12/08 02:45:50;;;;;;;281.90;91.60;;;;;;;0.49;85.47;101099.02;110750;1213;138730;-64
2023/12/08 02:48:15;;;;;;;267.90;85.10;;;;;;;0.50;85.32;101099.38;111051;1208;97590;-64
2023/12/08 02:50:43;;;;;;;273.70;86.80;;;;;;;0.50;85.33;101099.90;110805;1212;139538;-64
2023/12/08 02:53:08;;;;;;;267.70;87.40;;;;;;;0.51;85.39;101103.77;110937;1209;98565;-63
2023/12/08 02:55:34;;;;;;;264.10;86.40;;;;;;;0.50;85.31;101101.66;110859;1208;97711;-64
2023/12/08 02:58:00;;;;;;;264.50;88.80;;;;;;;0.50;85.36;101106.77;110764;1214;139438;-64
2023/12/08 03:00:26;;;;;;;262.00;86.00;;;;;;;0.50;85.38;101107.46;110934;1208;110696;-64
2023/12/08 03:02:51;;;;;;;265.40;87.50;;;;;;;0.50;85.39;101105.70;110764;1212;141977;-64
2023/12/08 03:05:16;;;;;;;258.30;89.60;;;;;;;0.50;85.36;101097.26;110888;1222;97595;-66
2023/12/08 03:07:42;;;;;;;258.00;88.30;;;;;;;0.51;85.38;101092.70;110862;1212;97600;-65
2023/12/08 03:10:08;;;;;;;254.40;85.30;;;;;;;0.52;85.48;101080.73;110774;1208;138843;-64
2023/12/08 03:12:33;;;;;;;254.30;86.30;;;;;;;0.50;85.47;101078.27;110881;1212;109120;-64
2023/12/08 03:14:58;;;;;;;267.20;88.60;;;;;;;0.53;85.47;101077.05;110694;1208;140408;-64
2023/12/08 03:17:23;;;;;;;267.70;88.70;;;;;;;0.54;85.48;101077.94;110919;1213;97606;-64
2023/12/08 03:19:49;;;;;;;260.30;86.10;;;;;;;0.54;85.47;101075.65;110874;1208;97622;-65
2023/12/08 03:22:14;;;;;;;267.60;89.60;;;;;;;0.55;85.50;101076.54;110741;1213;139119;-64
2023/12/08 03:24:39;;;;;;;252.50;82.00;;;;;;;0.56;85.48;101075.13;110846;1207;98304;-64
2023/12/08 03:27:04;;;;;;;259.30;85.20;;;;;;;0.54;85.51;101071.25;110792;1212;139430;-64
2023/12/08 03:29:30;;;;;;;262.40;88.80;;;;;;;0.54;85.47;101076.53;110806;1210;106409;-63
2023/12/08 03:31:55;;;;;;;263.40;85.50;;;;;;;0.54;85.39;101082.16;110854;1207;98101;-64
2023/12/08 03:34:20;;;;;;;269.20;91.70;;;;;;;0.53;85.44;101081.98;110807;1223;139051;-64
2023/12/08 03:36:45;;;;;;;273.60;85.50;;;;;;;0.53;85.51;101078.29;110851;1213;97663;-64
2023/12/08 03:39:11;;;;;;;277.10;90.90;;;;;;;0.52;85.45;101073.19;110758;1207;140002;-64
2023/12/08 03:41:36;;;;;;;255.00;85.70;;;;;;;0.53;85.54;101070.90;110833;1213;97600;-64
2023/12/08 03:44:01;;;;;;;269.00;88.00;;;;;;;0.54;85.57;101070.02;110932;1207;97883;-64
2023/12/08 03:46:27;;;;;;;282.20;89.00;;;;;;;0.53;85.53;101075.65;110759;1212;140251;-64
2023/12/08 03:48:52;;;;;;;283.70;90.10;;;;;;;0.53;85.55;101078.46;110881;1208;97666;-64
2023/12/08 03:51:18;;;;;;;287.00;89.00;;;;;;;0.54;85.59;101078.29;110755;1208;140056;-63
2023/12/08 03:53:43;;;;;;;267.30;88.10;;;;;;;0.54;85.60;101073.72;110863;1212;97684;-64
2023/12/08 03:56:08;;;;;;;281.10;90.40;;;;;;;0.54;85.57;101074.77;110933;1215;97578;-64
2023/12/08 03:58:34;;;;;;;281.70;90.80;;;;;;;0.54;85.63;101076.35;110761;1212;138817;-64
2023/12/08 04:00:59;;;;;;;284.70;91.20;;;;;;;0.54;85.66;101073.55;110854;1213;97561;-63
2023/12/08 04:03:24;;;;;;;299.60;91.10;;;;;;;0.55;85.60;101070.03;110844;1212;138595;-64
2023/12/08 04:05:50;;;;;;;302.10;93.90;;;;;;;0.56;85.57;101068.46;110876;1207;97605;-63
2023/12/08 04:08:15;;;;;;;287.80;91.80;;;;;;;0.56;85.58;101067.58;110943;1208;97652;-64
2023/12/08 04:10:41;;;;;;;303.60;92.80;;;;;;;0.56;85.59;101067.40;110667;1213;139531;-64
2023/12/08 04:13:06;;;;;;;290.60;92.90;;;;;;;0.56;85.67;101063.52;110800;1207;97662;-64
2023/12/08 04:15:31;;;;;;;298.10;95.10;;;;;;;0.55;85.67;101060.02;110800;1222;139300;-64
2023/12/08 04:17:57;;;;;;;308.10;92.80;;;;;;;0.54;85.55;101052.80;110856;1212;98073;-63
2023/12/08 04:20:23;;;;;;;305.90;94.60;;;;;;;0.53;85.58;101045.77;110919;1209;98954;-64
2023/12/08 04:22:48;;;;;;;307.30;95.00;;;;;;;0.53;85.60;101044.70;110775;1223;139019;-64
2023/12/08 04:25:15;;;;;;;329.00;96.30;;;;;;;0.51;85.67;101039.95;110978;1208;97676;-64
2023/12/08 04:27:40;;;;;;;306.90;93.70;;;;;;;0.53;85.73;101044.88;110794;1208;139120;-64
2023/12/08 04:30:07;;;;;;;302.60;93.60;;;;;;;0.53;85.67;101041.02;110843;1213;97680;-64
2023/12/08 04:32:33;;;;;;;303.60;93.50;;;;;;;0.54;85.75;101040.48;110826;1212;97605;-64
2023/12/08 04:34:58;;;;;;;276.80;86.50;;;;;;;0.53;85.63;101043.48;110735;1212;139400;-64
2023/12/08 04:37:23;;;;;;;296.50;90.90;;;;;;;0.52;85.66;101044.00;110963;1212;97703;-64
2023/12/08 04:39:49;;;;;;;278.30;86.70;;;;;;;0.52;85.64;101046.99;110722;1224;138757;-64
2023/12/08 04:42:15;;;;;;;281.90;89.00;;;;;;;0.52;85.74;101049.10;110905;1213;97690;-64
2023/12/08 04:44:40;;;;;;;279.80;85.90;;;;;;;0.52;85.69;101048.05;110771;1213;139455;-64
2023/12/08 04:47:05;;;;;;;270.80;85.70;;;;;;;0.53;85.69;101048.22;110840;1213;97600;-64
2023/12/08 04:49:31;;;;;;;265.50;83.70;;;;;;;0.53;85.73;101042.24;110842;1208;98927;-64
2023/12/08 04:51:56;;;;;;;263.10;82.10;;;;;;;0.53;85.79;101038.02;110775;1212;138667;-64
2023/12/08 04:54:22;;;;;;;270.50;83.80;;;;;;;0.52;85.78;101038.02;110844;1211;97568;-64
2023/12/08 04:56:47;;;;;;;268.50;85.30;;;;;;;0.52;85.80;101036.09;110716;1208;139273;-64
2023/12/08 04:59:12;;;;;;;254.50;79.20;;;;;;;0.53;85.84;101036.98;110813;1212;97718;-66
2023/12/08 05:01:37;;;;;;;251.80;77.40;;;;;;;0.53;85.83;101033.09;110934;1213;97517;-64
2023/12/08 05:04:03;;;;;;;255.40;78.30;;;;;;;0.53;85.79;101032.75;110639;1212;138521;-64
2023/12/08 05:06:29;;;;;;;256.80;77.50;;;;;;;0.54;85.80;101035.58;110874;1207;97585;-64
2023/12/08 05:08:55;;;;;;;253.60;81.50;;;;;;;0.53;85.81;101037.14;110816;1212;138842;-64
2023/12/08 05:11:21;;;;;;;262.90;81.10;;;;;;;0.52;85.78;101035.56;110833;1223;97672;-64
2023/12/08 05:13:48;;;;;;;255.40;77.10;;;;;;;0.52;85.73;101037.85;110899;1212;98126;-64
2023/12/08 05:16:14;;;;;;;243.60;76.70;;;;;;;0.51;85.84;101041.01;110692;1212;138760;-64
2023/12/08 05:18:41;;;;;;;252.20;73.20;;;;;;;0.52;85.84;101047.16;110867;1213;97683;-64
2023/12/08 05:21:07;;;;;;;258.20;73.80;;;;;;;0.51;85.86;101054.71;110713;1212;139811;-63
2023/12/08 05:23:32;;;;;;;258.80;76.20;;;;;;;0.51;85.81;101056.48;110896;1227;98613;-64
2023/12/08 05:25:58;;;;;;;257.80;73.60;;;;;;;0.51;85.86;101055.95;110854;1214;97663;-63
2023/12/08 05:28:23;;;;;;;249.40;73.50;;;;;;;0.52;85.91;101054.73;110705;1212;138916;-64
2023/12/08 05:30:49;;;;;;;244.20;75.60;;;;;;;0.50;85.83;101052.78;110923;1213;97723;-64
2023/12/08 05:33:14;;;;;;;246.60;75.20;;;;;;;0.49;85.85;101049.26;110712;1209;139649;-64
2023/12/08 05:35:39;;;;;;;240.40;69.80;;;;;;;0.49;85.90;101048.38;110843;1210;98242;-64
2023/12/08 05:38:04;;;;;;;248.20;74.60;;;;;;;0.47;85.84;101050.84;110824;1212;112715;-64
2023/12/08 05:40:30;;;;;;;244.20;68.80;;;;;;;0.46;85.98;101049.95;110739;1208;139833;-64
2023/12/08 05:42:55;;;;;;;255.30;76.10;;;;;;;0.45;85.85;101055.57;110876;1209;97300;-64
2023/12/08 05:45:20;;;;;;;257.40;77.40;;;;;;;0.45;85.87;101056.80;110738;1212;141096;-64
2023/12/08 05:47:45;;;;;;;247.30;76.60;;;;;;;0.43;85.95;101055.73;110912;1212;97835;-64
2023/12/08 05:50:11;;;;;;;267.00;79.80;;;;;;;0.45;85.91;101053.64;110816;1222;97643;-64
2023/12/08 05:52:36;;;;;;;274.30;83.20;;;;;;;0.46;86.03;101051.36;110841;1210;138500;-63
2023/12/08 05:55:02;;;;;;;285.40;80.90;;;;;;;0.46;85.97;101045.73;110866;1209;109870;-64
2023/12/08 05:57:28;;;;;;;273.40;83.00;;;;;;;0.47;85.88;101037.64;110751;1221;138821;-64
2023/12/08 05:59:53;;;;;;;285.00;81.40;;;;;;;0.48;85.88;101041.17;110873;1213;97760;-64
2023/12/08 06:02:19;;;;;;;270.60;79.80;;;;;;;0.49;86.02;101045.57;110744;1221;99241;-64
2023/12/08 06:04:44;;;;;;;284.10;82.70;;;;;;;0.51;85.99;101041.70;110770;1211;138656;-64
2023/12/08 06:07:10;;;;;;;269.70;80.00;;;;;;;0.51;86.08;101038.90;110883;1208;98201;-64
2023/12/08 06:09:36;;;;;;;266.80;74.60;;;;;;;0.52;86.07;101040.30;110692;1213;139179;-64
2023/12/08 06:12:03;;;;;;;263.50;78.90;;;;;;;0.57;86.37;101048.05;110860;1208;97613;-64
2023/12/08 06:14:29;;;;;;;280.90;83.10;;;;;;;0.64;86.36;101055.30;110868;1212;97681;-64
2023/12/08 06:16:54;;;;;;;262.70;77.80;;;;;;;0.64;86.26;101054.60;110817;1214;138601;-65
2023/12/08 06:19:19;;;;;;;299.30;82.80;;;;;;;0.64;86.14;101051.42;110795;1212;97595;-64
2023/12/08 06:21:45;;;;;;;278.40;82.40;;;;;;;0.63;86.16;101042.28;110792;1208;138714;-64
2023/12/08 06:24:10;;;;;;;259.90;78.90;;;;;;;0.62;86.23;101038.94;110855;1212;97696;-64
2023/12/08 06:26:38;;;;;;;264.30;78.90;;;;;;;0.60;86.11;101037.34;110734;1212;138779;-64
2023/12/08 06:29:04;;;;;;;259.90;80.20;;;;;;;0.61;86.24;101033.83;110889;1212;98468;-64
2023/12/08 06:31:31;;;;;;;260.40;78.30;;;;;;;0.62;86.16;101034.54;110958;1207;97610;-64
2023/12/08 06:33:56;;;;;;;224.20;67.50;;;;;;;0.61;86.16;101035.59;110766;1213;141060;-64
2023/12/08 06:36:21;;;;;;;239.80;67.50;;;;;;;0.65;86.44;101034.72;110833;1213;98280;-64
2023/12/08 06:38:47;;;;;;;225.40;65.40;;;;;;;0.76;86.81;101034.41;110831;1221;140179;-64
2023/12/08 06:41:12;;;;;;;231.20;65.80;;;;;;;0.85;86.85;101036.70;110852;1212;97608;-64
2023/12/08 06:43:37;;;;;;;252.60;72.40;;;;;;;0.89;86.79;101036.02;110874;1213;97752;-64
2023/12/08 06:46:03;;;;;;;269.20;73.60;;;;;;;0.94;86.79;101037.62;110694;1212;139215;-64
2023/12/08 06:48:28;;;;;;;301.30;78.40;;;;;;;0.97;86.83;101030.77;110882;1207;97392;-64
2023/12/08 06:50:54;;;;;;;276.80;77.40;;;;;;;1.01;86.74;101033.23;110827;1212;138844;-64
2023/12/08 06:53:19;;;;;;;254.40;73.70;;;;;;;1.00;86.53;101032.88;110770;1214;98271;-64
2023/12/08 06:55:45;;;;;;;292.70;79.00;;;;;;;0.95;86.46;101035.51;110957;1210;97667;-64
2023/12/08 06:58:10;;;;;;;277.40;79.60;;;;;;;0.94;86.47;101036.56;110709;1208;138536;-64
2023/12/08 07:00:36;;;;;;;287.30;80.50;;;;;;;0.93;86.47;101041.13;110868;1212;97727;-64
2023/12/08 07:03:01;;;;;;;332.00;78.90;;;;;;;0.90;86.42;101045.17;110708;1212;139053;-64
2023/12/08 07:05:26;;;;;;;273.60;77.20;;;;;;;0.89;86.48;101045.70;110829;1218;98630;-65
2023/12/08 07:07:52;;;;;;;274.40;77.80;;;;;;;0.87;86.48;101049.38;110888;1212;97686;-64
2023/12/08 07:10:17;;;;;;;279.30;83.40;;;;;;;0.85;86.52;101045.51;110688;1213;140083;-64
2023/12/08 07:12:43;;;;;;;260.00;76.60;;;;;;;0.85;86.42;101044.98;110804;1223;97628;-64
2023/12/08 07:15:12;;;;;;;266.70;79.70;;;;;;;0.87;86.54;101033.73;110771;1212;139129;-64
2023/12/08 07:17:38;;;;;;;259.40;73.30;;;;;;;0.88;86.59;101027.92;110845;1212;99375;-64
2023/12/08 07:20:06;;;;;;;267.80;79.30;;;;;;;0.87;86.58;101020.36;110742;1209;98138;-64
2023/12/08 07:22:32;;;;;;;247.90;75.80;;;;;;;0.87;86.50;101019.48;110777;1210;139457;-65
2023/12/08 07:24:59;;;;;;;271.80;75.00;;;;;;;0.86;86.54;101015.97;110806;1212;97747;-64
2023/12/08 07:27:24;;;;;;;318.90;83.80;;;;;;;0.88;86.57;101013.67;110784;1229;139210;-64
2023/12/08 07:29:49;;;;;;;273.30;81.10;;;;;;;0.89;86.49;101007.17;110731;1208;97717;-64
2023/12/08 07:32:14;;;;;;;265.10;78.70;;;;;;;0.89;86.47;100999.42;110659;1209;97652;-64
2023/12/08 07:34:40;;;;;;;275.30;79.70;;;;;;;0.89;86.58;100994.67;110657;1221;139585;-64
2023/12/08 07:37:05;;;;;;;263.90;78.50;;;;;;;0.89;86.62;100989.92;110825;1215;97672;-65
2023/12/08 07:39:30;;;;;;;254.90;74.80;;;;;;;0.89;86.52;100987.11;110231;1209;138609;-65
2023/12/08 07:41:56;;;;;;;242.50;72.80;;;;;;;0.89;86.64;100984.83;110648;1216;97713;-65
2023/12/08 07:44:21;;;;;;;238.40;70.90;;;;;;;0.88;86.62;100978.66;110764;1209;98280;-65
2023/12/08 07:46:48;;;;;;;227.00;66.10;;;;;;;0.89;86.61;100971.45;110584;1212;139551;-65
2023/12/08 07:49:13;;;;;;;224.80;67.40;;;;;;;0.92;86.66;100962.14;110619;1209;97645;-64
2023/12/08 07:51:38;;;;;;;217.70;63.60;;;;;;;0.93;86.64;100966.36;110694;1209;139166;-64
2023/12/08 07:54:03;;;;;;;209.90;63.00;;;;;;;0.95;86.61;100980.44;110640;1212;98480;-65
2023/12/08 07:56:29;;;;;;;221.80;66.60;;;;;;;0.95;86.66;100984.30;110758;1210;97673;-65
2023/12/08 07:58:54;;;;;;;220.20;62.90;;;;;;;0.95;86.66;100991.88;110731;1223;138359;-64
2023/12/08 08:01:19;;;;;;;202.50;60.40;;;;;;;0.95;86.56;101002.96;110768;1215;97731;-65
2023/12/08 08:03:45;;;;;;;202.10;59.70;;;;;;;0.95;86.57;101005.95;110754;1210;138995;-64
2023/12/08 08:06:11;;;;;;;250.30;62.70;;;;;;;0.95;86.57;101007.52;110762;1212;97772;-64
2023/12/08 08:08:37;;;;;;;271.20;64.20;;;;;;;0.95;86.67;101007.35;110522;1212;138850;-65
2023/12/08 08:11:03;;;;;;;197.60;58.60;;;;;;;0.99;86.66;100999.63;110596;1215;97749;-63
2023/12/08 08:13:29;;;;;;;210.10;60.50;;;;;;;1.00;86.58;100997.16;110818;1221;106845;-64
2023/12/08 08:15:54;;;;;;;184.60;58.20;;;;;;;0.98;86.57;100990.46;110510;1223;138885;-64
2023/12/08 08:18:19;;;;;;;219.50;59.60;;;;;;;0.97;86.58;100982.02;110687;1209;98254;-64
2023/12/08 08:20:45;;;;;;;208.20;55.00;;;;;;;0.99;86.71;100981.85;110523;1210;139251;-63
2023/12/08 08:23:11;;;;;;;224.90;56.70;;;;;;;1.03;86.77;100980.62;110584;1209;99652;-63
2023/12/08 08:25:36;;;;;;;250.20;65.50;;;;;;;1.05;86.66;100988.19;110591;1212;98821;-63
2023/12/08 08:28:02;;;;;;;234.40;60.60;;;;;;;1.05;86.69;100992.23;110403;1221;139269;-63
2023/12/08 08:30:27;;;;;;;262.30;59.30;;;;;;;1.04;86.67;100994.52;110622;1209;97586;-63
2023/12/08 08:32:52;;;;;;;290.60;68.20;;;;;;;1.06;86.70;100996.98;110566;1215;139857;-63
2023/12/08 08:35:18;;;;;;;208.90;59.00;;;;;;;1.07;86.67;100998.05;110686;1209;97870;-63
2023/12/08 08:37:44;;;;;;;228.30;57.30;;;;;;;1.05;86.70;101000.51;110532;1209;99503;-63
2023/12/08 08:40:10;;;;;;;196.90;53.40;;;;;;;1.04;86.73;101005.95;110791;1212;140128;-63
2023/12/08 08:42:36;;;;;;;190.30;53.80;;;;;;;1.05;86.69;101011.95;110587;1212;97593;-63
2023/12/08 08:45:06;;;;;;;188.20;52.50;;;;;;;1.04;86.51;101020.04;110570;1210;138946;-64
2023/12/08 08:47:32;;;;;;;197.90;57.30;;;;;;;1.02;86.63;101021.27;110754;1209;99120;-63
2023/12/08 08:49:57;;;;;;;186.50;54.30;;;;;;;1.01;86.54;101025.31;110809;1211;97658;-63
2023/12/08 08:52:23;;;;;;;179.80;52.70;;;;;;;1.00;86.66;101021.62;110627;1208;138415;-63
2023/12/08 08:54:48;;;;;;;185.20;52.80;;;;;;;1.02;86.66;101026.02;110733;1224;110506;-63
2023/12/08 08:57:15;;;;;;;189.30;55.80;;;;;;;1.06;86.76;101026.73;110517;1212;139078;-62
2023/12/08 08:59:43;;;;;;;194.70;56.10;;;;;;;1.07;86.74;101021.45;110774;1212;97614;-64
2023/12/08 09:02:08;;;;;;;228.80;55.70;;;;;;;1.08;86.68;101018.64;110701;1221;97673;-61
2023/12/08 09:04:33;;;;;;;219.00;55.00;;;;;;;1.07;86.61;101011.42;110746;1209;140272;-61
2023/12/08 09:06:58;;;;;;;202.60;55.90;;;;;;;1.09;86.63;101009.31;110786;1215;100251;-61
2023/12/08 09:09:24;;;;;;;192.30;55.00;;;;;;;1.15;86.75;101005.62;110552;1215;139796;-61
2023/12/08 09:11:49;;;;;;;180.80;52.90;;;;;;;1.17;86.70;100995.23;110615;1208;98326;-61
2023/12/08 09:14:15;;;;;;;179.90;52.80;;;;;;;1.16;86.67;100989.08;110658;1212;97842;-61
2023/12/08 09:16:40;;;;;;;233.40;55.70;;;;;;;1.16;86.66;100980.27;110537;1225;139060;-61
2023/12/08 09:19:06;;;;;;;185.60;53.90;;;;;;;1.17;86.65;100976.58;110574;1215;97681;-61
2023/12/08 09:21:32;;;;;;;178.10;52.50;;;;;;;1.19;86.67;100976.75;110696;1209;139489;-61
2023/12/08 09:23:57;;;;;;;180.20;51.20;;;;;;;1.19;86.67;100970.59;110462;1224;99513;-61
2023/12/08 09:26:23;;;;;;;181.70;49.70;;;;;;;1.19;86.66;100967.42;110635;1216;97681;-61
2023/12/08 09:28:49;;;;;;;179.10;53.50;;;;;;;1.17;86.52;100965.32;110683;1210;139277;-61
2023/12/08 09:31:15;;;;;;;165.90;50.80;;;;;;;1.20;86.57;100965.32;110638;1226;97684;-61
2023/12/08 09:33:42;;;;;;;173.40;51.40;;;;;;;1.21;86.72;100965.49;110689;1212;138519;-61
2023/12/08 09:36:08;;;;;;;157.50;48.80;;;;;;;1.22;86.58;100960.56;110768;1215;97652;-61
2023/12/08 09:38:34;;;;;;;172.80;50.10;;;;;;;1.23;86.66;100961.45;111022;1212;97674;-61
2023/12/08 09:41:04;;;;;;;163.90;47.10;;;;;;;1.23;86.62;100967.95;110712;1228;138780;-61
2023/12/08 09:43:47;;;;;;;156.60;46.60;;;;;;;1.21;86.77;100971.30;110845;1209;99403;-61
2023/12/08 09:46:14;;;;;;;155.60;48.00;;;;;;;1.22;86.67;100969.36;110610;1215;139062;-60
2023/12/08 09:48:43;;;;;;;147.30;46.20;;;;;;;1.21;86.56;100967.08;110807;1213;98064;-60
2023/12/08 09:51:10;;;;;;;158.30;47.20;;;;;;;1.21;86.66;100962.15;110746;1212;139193;-61
2023/12/08 09:53:38;;;;;;;156.00;47.20;;;;;;;1.23;86.65;100961.63;110835;1209;97594;-61
2023/12/08 09:56:07;;;;;;;163.30;45.20;;;;;;;1.23;86.50;100963.73;110725;1212;101183;-61
2023/12/08 09:58:35;;;;;;;161.70;48.10;;;;;;;1.21;86.55;100963.55;110575;1212;138648;-61
2023/12/08 10:01:01;;;;;;;156.60;45.40;;;;;;;1.19;86.55;100953.86;110767;1210;99159;-60
2023/12/08 10:03:27;;;;;;;161.50;47.90;;;;;;;1.22;86.60;100950.17;110544;1213;139389;-61
2023/12/08 10:05:54;;;;;;;156.70;44.90;;;;;;;1.22;86.55;100941.90;110830;1210;98138;-61
2023/12/08 10:08:24;;;;;;;172.30;48.50;;;;;;;1.25;86.65;100939.43;110847;1208;108506;-62
2023/12/08 10:10:49;;;;;;;162.90;46.20;;;;;;;1.29;86.79;100933.63;110660;1212;138831;-61
2023/12/08 10:13:15;;;;;;;177.10;48.70;;;;;;;1.30;86.68;100923.59;110820;1209;96433;-61
2023/12/08 10:15:42;;;;;;;186.60;50.30;;;;;;;1.31;86.78;100918.48;110787;1212;139062;-61
2023/12/08 10:18:09;;;;;;;156.80;45.60;;;;;;;1.32;86.69;100917.08;110659;1212;110536;-61
2023/12/08 10:20:35;;;;;;;175.70;48.30;;;;;;;1.35;86.86;100919.53;110760;1208;97600;-61
2023/12/08 10:23:00;;;;;;;165.30;44.10;;;;;;;1.35;86.77;100924.29;110678;1212;138733;-61
2023/12/08 10:25:26;;;;;;;153.50;45.60;;;;;;;1.38;86.75;100928.15;110841;1209;100099;-61
2023/12/08 10:27:56;;;;;;;146.50;42.00;;;;;;;1.40;86.78;100928.50;110695;1212;138689;-60
2023/12/08 10:30:25;;;;;;;145.00;42.60;;;;;;;1.41;86.83;100922.88;110879;1208;97616;-62
2023/12/08 10:32:50;;;;;;;134.40;44.80;;;;;;;1.39;86.70;100913.55;110616;1212;140383;-60
2023/12/08 10:35:16;;;;;;;144.60;42.10;;;;;;;1.39;86.65;100910.37;110684;1212;97695;-61
2023/12/08 10:37:43;;;;;;;127.40;38.90;;;;;;;1.39;86.63;100913.55;110819;1212;98164;-61
2023/12/08 10:40:12;;;;;;;151.70;41.20;;;;;;;1.40;86.69;100911.44;110619;1212;138667;-61
2023/12/08 10:42:38;;;;;;;153.70;43.60;;;;;;;1.42;86.73;100894.70;110838;1212;97722;-61
2023/12/08 10:45:11;;;;;;;126.70;38.60;;;;;;;1.45;86.56;100887.30;110893;1212;140345;-61
2023/12/08 10:47:43;;;;;;;137.20;41.70;;;;;;;1.46;86.77;100883.41;110827;1209;99483;-60
2023/12/08 10:50:09;;;;;;;158.00;39.80;;;;;;;1.46;86.74;100879.36;110770;1209;106939;-61